| time (UTC) | temp C | wind direction | speed KPH | gust KPH | rain 1hr cm | rain 24hr cm | rain mn cm | humidity % | barometer mb |
| 20260507101544 | 11 | 298 | 1.6 | 6.4 | 0.00 | 0.86 | 0.61 | 89 | 1012.5 |
| 20260507100037 | 11 | 360 | 0.0 | 6.4 | 0.00 | 0.86 | 0.61 | 90 | 1012.4 |
| 20260507094534 | 12 | 342 | 0.0 | 3.2 | 0.00 | 0.86 | 0.61 | 89 | 1012.5 |
| 20260507093038 | 12 | 342 | 0.0 | 0.0 | 0.00 | 0.86 | 0.61 | 89 | 1012.3 |
| 20260507091530 | 12 | 342 | 1.6 | 4.8 | 0.00 | 0.86 | 0.61 | 89 | 1012.4 |
| 20260507090033 | 12 | 28 | 3.2 | 6.4 | 0.00 | 0.86 | 0.61 | 89 | 1012.2 |
| 20260507084526 | 12 | 17 | 0.0 | 4.8 | 0.00 | 0.86 | 0.61 | 89 | 1012.3 |
| 20260507083035 | 12 | 13 | 0.0 | 6.4 | 0.00 | 0.86 | 0.61 | 90 | 1012.2 |
| 20260507081527 | 12 | 331 | 3.2 | 9.7 | 0.00 | 0.86 | 0.61 | 89 | 1011.8 |
| 20260507080019 | 12 | 336 | 1.6 | 6.4 | 0.00 | 0.86 | 0.61 | 90 | 1011.7 |
| 20260507074526 | 12 | 36 | 0.0 | 8.0 | 0.00 | 0.86 | 0.61 | 91 | 1011.3 |
| 20260507073016 | 13 | 158 | 1.6 | 4.8 | 0.00 | 0.86 | 0.61 | 91 | 1011.3 |
| 20260507071514 | 13 | 5 | 4.8 | 14.5 | 0.00 | 0.86 | 0.61 | 91 | 1011.0 |
| 20260507070014 | 13 | 340 | 1.6 | 8.0 | 0.00 | 0.86 | 0.61 | 91 | 1011.3 |
| 20260507064512 | 13 | 15 | 3.2 | 16.1 | 0.00 | 0.86 | 0.61 | 91 | 1010.9 |
| 20260507063012 | 13 | 336 | 3.2 | 6.4 | 0.05 | 0.86 | 0.61 | 91 | 1010.4 |
| 20260507061508 | 13 | 348 | 3.2 | 12.9 | 0.20 | 0.86 | 0.61 | 90 | 1010.7 |
| 20260507060004 | 14 | 43 | 1.6 | 16.1 | 0.33 | 0.86 | 0.61 | 90 | 1010.9 |
| 20260507054502 | 15 | 313 | 4.8 | 9.7 | 0.38 | 0.86 | 0.61 | 90 | 1010.9 |
| 20260507053100 | 15 | 200 | 0.0 | 6.4 | 0.56 | 0.81 | 0.56 | 90 | 1010.9 |
| 20260507051600 | 15 | 157 | 1.6 | 4.8 | 0.41 | 0.66 | 0.41 | 89 | 1011.0 |
| 20260507050054 | 16 | 81 | 3.2 | 6.4 | 0.28 | 0.53 | 0.28 | 87 | 1010.6 |
| 20260507044550 | 17 | 310 | 1.6 | 9.7 | 0.23 | 0.48 | 0.23 | 83 | 1011.4 |
| 20260507043046 | 17 | 99 | 0.0 | 3.2 | 0.00 | 0.25 | 0.00 | 82 | 1011.0 |
| 20260507041544 | 17 | 85 | 1.6 | 4.8 | 0.00 | 0.25 | 0.00 | 81 | 1010.7 |
| 20260507040053 | 17 | 340 | 1.6 | 6.4 | 0.00 | 0.25 | 0.00 | 83 | 1010.5 |
| 20260507034549 | 18 | 329 | 4.8 | 14.5 | 0.00 | 0.25 | 0.25 | 87 | 1010.6 |
| 20260507033043 | 18 | 132 | 0.0 | 4.8 | 0.00 | 0.25 | 0.25 | 88 | 1010.3 |
| 20260507031540 | 18 | 138 | 0.0 | 3.2 | 0.00 | 0.25 | 0.25 | 88 | 1010.2 |
| 20260507030040 | 18 | 135 | 0.0 | 4.8 | 0.00 | 0.25 | 0.25 | 87 | 1010.2 |
| 20260507024538 | 18 | 213 | 1.6 | 3.2 | 0.00 | 0.25 | 0.25 | 87 | 1009.9 |
| 20260507023037 | 18 | 213 | 1.6 | 4.8 | 0.00 | 0.25 | 0.25 | 88 | 1009.8 |
| 20260507021537 | 18 | 213 | 0.0 | 1.6 | 0.00 | 0.25 | 0.25 | 88 | 1009.8 |
| 20260507020037 | 18 | 213 | 0.0 | 0.0 | 0.00 | 0.25 | 0.25 | 88 | 1009.9 |
| 20260507014536 | 18 | 213 | 0.0 | 0.0 | 0.00 | 0.25 | 0.25 | 87 | 1009.8 |
| 20260507013039 | 18 | 213 | 0.0 | 0.0 | 0.00 | 0.25 | 0.25 | 87 | 1010.4 |
| 20260507011540 | 18 | 213 | 0.0 | 0.0 | 0.00 | 0.25 | 0.25 | 87 | 1010.4 |
| 20260507010035 | 18 | 213 | 0.0 | 0.0 | 0.00 | 0.25 | 0.25 | 87 | 1010.3 |
| 20260507004534 | 18 | 213 | 0.0 | 3.2 | 0.00 | 0.25 | 0.25 | 86 | 1009.7 |
| 20260507003035 | 19 | 213 | 0.0 | 1.6 | 0.00 | 0.25 | 0.25 | 85 | 1010.0 |
| 20260507001546 | 19 | 213 | 0.0 | 0.0 | 0.00 | 0.25 | 0.25 | 83 | 1009.9 |
| 20260507000033 | 20 | 213 | 0.0 | 1.6 | 0.00 | 0.25 | 0.25 | 83 | 1009.7 |
| 20260506234542 | 20 | 213 | 0.0 | 3.2 | 0.00 | 0.25 | 0.25 | 82 | 1009.4 |
| 20260506233034 | 20 | 213 | 1.6 | 6.4 | 0.00 | 0.25 | 0.25 | 81 | 1009.3 |
| 20260506231536 | 20 | 242 | 1.6 | 6.4 | 0.00 | 0.25 | 0.25 | 80 | 1009.1 |
| 20260506230031 | 20 | 237 | 1.6 | 11.3 | 0.00 | 0.25 | 0.25 | 80 | 1009.4 |
| 20260506224531 | 20 | 225 | 3.2 | 16.1 | 0.00 | 0.25 | 0.25 | 79 | 1009.1 |
| 20260506223031 | 21 | 267 | 8.0 | 17.7 | 0.00 | 0.25 | 0.25 | 78 | 1009.3 |
| 20260506221530 | 21 | 219 | 1.6 | 9.7 | 0.00 | 0.25 | 0.25 | 79 | 1009.3 |
| 20260506220030 | 21 | 246 | 4.8 | 14.5 | 0.00 | 0.25 | 0.25 | 79 | 1009.2 |
| 20260506214529 | 21 | 213 | 4.8 | 19.3 | 0.00 | 0.25 | 0.25 | 78 | 1009.3 |
| 20260506213028 | 21 | 194 | 1.6 | 9.7 | 0.00 | 0.25 | 0.25 | 78 | 1008.9 |
| 20260506211528 | 21 | 204 | 6.4 | 17.7 | 0.00 | 0.25 | 0.25 | 78 | 1009.0 |
| 20260506210027 | 21 | 250 | 4.8 | 19.3 | 0.00 | 0.25 | 0.25 | 78 | 1008.7 |
| 20260506204528 | 21 | 243 | 1.6 | 16.1 | 0.00 | 0.25 | 0.25 | 79 | 1008.8 |
| 20260506203034 | 21 | 219 | 3.2 | 19.3 | 0.00 | 0.25 | 0.25 | 79 | 1008.8 |
| 20260506201526 | 20 | 250 | 8.0 | 22.5 | 0.00 | 0.25 | 0.25 | 80 | 1008.9 |
| 20260506200026 | 21 | 234 | 6.4 | 20.9 | 0.00 | 0.25 | 0.25 | 79 | 1008.8 |
| 20260506194524 | 20 | 244 | 9.7 | 32.2 | 0.00 | 0.25 | 0.25 | 79 | 1008.7 |
| 20260506193024 | 20 | 264 | 6.4 | 30.6 | 0.00 | 0.25 | 0.25 | 79 | 1008.9 |
| 20260506191522 | 20 | 248 | 4.8 | 16.1 | 0.00 | 0.25 | 0.25 | 80 | 1009.1 |
| 20260506190032 | 20 | 270 | 9.7 | 24.1 | 0.00 | 0.25 | 0.25 | 79 | 1009.2 |
| 20260506184520 | 20 | 215 | 9.7 | 24.1 | 0.00 | 0.25 | 0.25 | 79 | 1009.3 |
| 20260506183019 | 20 | 270 | 9.7 | 22.5 | 0.00 | 0.25 | 0.25 | 79 | 1009.4 |
| 20260506181517 | 20 | 231 | 8.0 | 30.6 | 0.00 | 0.25 | 0.25 | 80 | 1009.8 |
| 20260506180016 | 19 | 209 | 9.7 | 24.1 | 0.00 | 0.25 | 0.25 | 81 | 1010.0 |
| 20260506174516 | 19 | 186 | 8.0 | 24.1 | 0.00 | 0.25 | 0.25 | 82 | 1010.2 |
| 20260506173014 | 18 | 247 | 11.3 | 29.0 | 0.00 | 0.25 | 0.25 | 83 | 1010.0 |
| 20260506171516 | 18 | 226 | 4.8 | 20.9 | 0.00 | 0.25 | 0.25 | 84 | 1010.3 |
| 20260506170012 | 18 | 260 | 8.0 | 27.4 | 0.03 | 0.25 | 0.25 | 85 | 1010.2 |
| 20260506164514 | 17 | 148 | 8.0 | 22.5 | 0.03 | 0.25 | 0.25 | 87 | 1010.4 |
| 20260506163024 | 17 | 180 | 4.8 | 29.0 | 0.05 | 0.25 | 0.25 | 89 | 1010.3 |
| 20260506161508 | 17 | 230 | 6.4 | 17.7 | 0.05 | 0.25 | 0.25 | 90 | 1010.3 |
| 20260506160008 | 16 | 198 | 4.8 | 19.3 | 0.03 | 0.23 | 0.23 | 90 | 1010.6 |
| 20260506154518 | 16 | 221 | 4.8 | 19.3 | 0.08 | 0.23 | 0.23 | 90 | 1010.5 |
| 20260506153003 | 16 | 219 | 3.2 | 16.1 | 0.15 | 0.20 | 0.20 | 90 | 1010.8 |
| 20260506151502 | 16 | 198 | 4.8 | 14.5 | 0.18 | 0.20 | 0.20 | 90 | 1011.3 |
| 20260506150001 | 16 | 175 | 3.2 | 12.9 | 0.18 | 0.20 | 0.20 | 89 | 1011.3 |
| 20260506144559 | 16 | 184 | 3.2 | 12.9 | 0.15 | 0.15 | 0.15 | 88 | 1011.5 |
| 20260506143057 | 16 | 220 | 1.6 | 8.0 | 0.05 | 0.05 | 0.05 | 86 | 1011.3 |
| 20260506141555 | 16 | 200 | 3.2 | 9.7 | 0.05 | 0.05 | 0.05 | 85 | 1011.5 |
| 20260506140051 | 17 | 187 | 4.8 | 17.7 | 0.03 | 0.03 | 0.03 | 82 | 1011.7 |
| 20260506134547 | 18 | 255 | 4.8 | 14.5 | 0.00 | 0.00 | 0.00 | 77 | 1011.6 |
| 20260506133050 | 18 | 235 | 4.8 | 17.7 | 0.00 | 0.00 | 0.00 | 76 | 1011.4 |
| 20260506131547 | 18 | 246 | 6.4 | 16.1 | 0.00 | 0.00 | 0.00 | 76 | 1011.3 |
| 20260506130047 | 18 | 242 | 3.2 | 22.5 | 0.00 | 0.00 | 0.00 | 76 | 1011.1 |
| 20260506124547 | 18 | 195 | 4.8 | 25.7 | 0.00 | 0.00 | 0.00 | 75 | 1011.0 |
| 20260506123048 | 18 | 253 | 3.2 | 14.5 | 0.00 | 0.00 | 0.00 | 76 | 1011.2 |
| 20260506121553 | 18 | 195 | 3.2 | 17.7 | 0.00 | 0.00 | 0.00 | 76 | 1011.4 |
| 20260506120042 | 18 | 226 | 3.2 | 22.5 | 0.00 | 0.00 | 0.00 | 76 | 1011.3 |
| 20260506114542 | 18 | 152 | 6.4 | 24.1 | 0.00 | 0.00 | 0.00 | 76 | 1011.2 |
| 20260506113040 | 18 | 155 | 4.8 | 17.7 | 0.00 | 0.00 | 0.00 | 76 | 1011.0 |
| 20260506111538 | 18 | 199 | 6.4 | 19.3 | 0.00 | 0.00 | 0.00 | 77 | 1010.8 |
| 20260506110034 | 18 | 257 | 6.4 | 22.5 | 0.00 | 0.00 | 0.00 | 77 | 1010.8 |
| 20260506104531 | 18 | 243 | 8.0 | 19.3 | 0.00 | 0.00 | 0.00 | 78 | 1010.8 |
| 20260506103030 | 18 | 219 | 4.8 | 17.7 | 0.00 | 0.00 | 0.00 | 78 | 1010.7 |